Weather at Gordon Brown Airport

Public forecast

Using degrees Fahrenheit for public forecast. Weather courtesy of forecast.io.

Closest aviation weather report (METAR) to Gordon Brown Airport

Closest report is General Wayne A. Downing Peoria International Airport, 9.0 nm (16.6 km) ESE. Retrieved 2021/08/02 10:54 UTC (57 minutes ago):

KPIA 021054Z 00000KT 6SM BR CLR 14/13 A3017 RMK AO2 SLP213 T01440128

Closest aviation forecast (TAF) to Gordon Brown Airport

Closest forecast is General Wayne A. Downing Peoria International Airport, 9.0 nm (16.6 km) ESE. Retrieved 2021/08/02 06:22 UTC (5 hours ago):

TAF KPIA 020520Z 0206/0306 06004KT P6SM SCT045